ADDS METAR Data INFO
IDs: Format: Raw Decoded Include TAF

Data at: 1810 UTC 14 Aug 2018

PABE 141753Z 24021G25KT 10SM OVC010 09/08 A2980 RMK AO2 PK WND 23028/1730 SLP092 60011 T00890078 10100 20089 51016
PABE 141653Z 24019G30KT 10SM OVC011 09/08 A2979 RMK AO2 PK WND 24030/1649 RAE00 SLP088 P0000 T00890078
PABE 141553Z 24018G27KT 10SM -RA OVC010 09/08 A2977 RMK AO2 PK WND 25030/1508 SLP082 P0002 T00890078
PABE 141502Z 24022G29KT 2SM -RA BR OVC010 09/08 A2975 RMK AO2 PK WND 25029/1454 P0001 T00890078
PABE 141453Z COR 25020G32KT 2SM -RA BR OVC010 09/08 A2975 RMK AO2 PK WND 25032/1447 SLP075 P0003 60009 T00890078 51017
PABE 141437Z AUTO 24020G27KT 10SM -RA OVC010 09/08 A2975 RMK AO2 PK WND 24030/1413 P0003 T00890078 TSNO
PABE 141353Z AUTO 25022G27KT 5SM -RA BR OVC009 09/08 A2974 RMK AO2 PK WND 25031/1256 SLP071 P0003 T00890083 TSNO
PABE 141253Z AUTO 25020KT 6SM -RA BR OVC008 09/09 A2972 RMK AO2 PK WND 25029/1155 SLP065 P0003 T00940089 TSNO
PABE 141221Z AUTO 25019G25KT 8SM -RA OVC009 10/09 A2971 RMK AO2 PK WND 25029/1155 P0002 T01000094 TSNO
PABE 141211Z AUTO 25019G25KT 8SM -RA OVC010 10/09 A2971 RMK AO2 PK WND 25029/1155 P0001 T01000094 TSNO
PABE 141153Z 26018G28KT 10SM -RA OVC009 10/09 A2970 RMK AO2 PK WND 26028/1150 SLP058 P0004 60053 70117 T01000094 10128 20100 51023
PABE 141053Z 26020G26KT 5SM -RA BR OVC008 11/10 A2968 RMK AO2 PK WND 26030/1025 SLP051 P0007 T01060100
PABE 140953Z 26019G28KT 5SM -RA BR OVC007 11/11 A2965 RMK AO2 PK WND 26029/0933 SLP043 P0009 T01110106
PABE 140922Z 26022G29KT 3SM -RA BR OVC005 11/11 A2964 RMK AO2 PK WND 26029/0909 P0005 T01110106
PABE 140900Z 26020G29KT 2 1/2SM -RA BR OVC005 12/11 A2963 RMK AO2 PK WND 27027/0900 P0002 T01170111
PABE 140853Z 26018G26KT 3SM -RA BR OVC005 12/11 A2963 RMK AO2 PK WND 26027/0833 SLP035 P0005 60033 T01170111 401440117 53022
PABE 140753Z 26017G25KT 4SM -RA BR OVC006 12/12 A2961 RMK AO2 PK WND 26026/0654 SLP027 P0010 T01220117
PABE 140733Z 26016KT 5SM RA BR BKN006 BKN012 OVC044 13/12 A2960 RMK AO2 PK WND 26026/0654 P0007 T01280122
PABE 140707Z 27013KT 7SM -RA SCT005 BKN016 OVC022 13/12 A2959 RMK AO2 PK WND 26026/0654 P0003 T01280117
PABE 140653Z 26019G27KT 4SM RA BR BKN005 BKN010 OVC016 13/12 A2958 RMK AO2 PK WND 27027/0653 SLP018 P0018 T01280122
PABE 140642Z 25016KT 3SM RA BR SCT005 BKN008 OVC022 13/12 A2958 RMK AO2 P0014 T01280122
PABE 140628Z 25011KT 2SM RA BR FEW006 SCT016 OVC025 13/12 A2958 RMK AO2 VIS 1 1/4V3 P0008 T01280122
PABE 140620Z 25011KT 4SM RA BR SCT006 SCT015 OVC027 12/12 A2957 RMK AO2 P0005 T01220117
PABE 140603Z 24013KT 4SM -RA BR BKN006 BKN015 OVC065 12/12 A2957 RMK AO2 P0001 T01220117
PABE 140549Z 25012KT 10SM -RA SCT007 BKN018 OVC080 13/12 A2957 RMK AO2 SLP013 P0003 60023 T01280122 10139 20122 53021
PABE 140548Z 25012KT 10SM -RA SCT007 BKN018 OVC085 13/12 A2957 RMK AO2 P0003
PABE 140542Z 24013KT 10SM -RA SCT011 BKN065 OVC080 13/12 A2957 RMK AO2 P0003 T01280122
PABE 140453Z 25014KT 10SM -RA BKN006 BKN012 OVC055 13/12 A2954 RMK AO2 SLP005 P0005 T01280122
PABE 140353Z 25017KT 8SM -RA OVC006 12/12 A2952 RMK AO2 PK WND 24029/0255 SLP998 P0004 T01220117
PABE 140309Z 25020KT 8SM -RA OVC006 12/12 A2951 RMK AO2 PK WND 24029/0255 P0001 T01220117
PABE 140253Z 25022G28KT 2 1/2SM R19R/5000VP6000FT -RA BR OVC005 12/12 A2951 RMK AO2 PK WND 25029/0243 VIS 1 1/4V4 SLP992 P0002 60011 T01220117 51016
PABE 140241Z 24020G29KT 6SM -RA BR OVC006 12/12 A2950 RMK AO2 PK WND 24029/0237 P0001 T01220117
PABE 140233Z 24017G27KT 2 1/2SM -RA BR OVC006 13/12 A2950 RMK AO2 PK WND 24027/0211 P0001 T01280117
PABE 140202Z 24020KT 5SM -RA BR OVC006 13/12 A2949 RMK AO2 PK WND 24026/0154 P0000 T01280122
PABE 140153Z 24021G27KT 2SM -RA BR OVC006 13/12 A2949 RMK AO2 PK WND 24028/0109 SLP987 P0004 T01280122
PABE 140053Z 24019G26KT 2SM R19R/5000VP6000FT RA BR OVC009 13/12 A2948 RMK AO2 PK WND 25028/0034 SLP983 P0005 T01280122
PABE 140027Z 25015G22KT 2SM R19R/4500VP6000FT RA BR OVC009 14/13 A2946 RMK AO2 P0002 T01390128
PABE 132353Z 26013KT 10SM -RA SCT009 OVC055 14/13 A2946 RMK AO2 SLP976 P0003 60021 T01390128 10144 20117 51020
PABE 132329Z 27011KT 10SM -RA BKN009 BKN015 OVC032 14/13 A2945 RMK AO2 P0002 T01390128
PABE 132305Z 29008KT 10SM -RA BKN011 BKN035 OVC080 14/13 A2944 RMK AO2 P0000 T01390128
PABE 132253Z 27009KT 10SM -RA SCT011 BKN025 OVC080 14/13 A2943 RMK AO2 SLP968 P0001 T01390128
PABE 132211Z 32009KT 10SM -RA SCT009 BKN060 OVC085 14/13 A2941 RMK AO2 P0000 T01390128
PABE 132153Z 32006KT 5SM -RA BR BKN009 OVC034 14/12 A2940 RMK AO2 SLP956 P0006 T01390122
PABE 132138Z 32005KT 2SM -RA BR BKN006 OVC013 14/13 A2939 RMK AO2 P0005 T01390128
PABE 132130Z COR 30005KT 2SM R19R/P6000FT -RA FG BKN006 OVC013 13/13 A2939 RMK AO2 P0004 T01330128
PABE 132118Z COR 28005KT 1/4SM R19R/4000VP6000FT -RA FG BKN006 OVC011 13/13 A2938 RMK AO2 P0003 T01330128
PABE 132106Z 25005KT 1/4SM R19R/4000VP6000FT -RA FG BKN004 OVC009 13/13 A2938 RMK AO2 P0001 T01330128
PABE 132053Z 25006KT 1/4SM R19R/6000VP6000FT -RA FG BKN005 OVC009 13/13 A2937 RMK AO2 SLP947 P0004 60011 T01330128 53022
PABE 132034Z 24008KT 1/4SM R19R/5000V6000FT -RA FG BKN005 OVC009 13/12 A2936 RMK AO2 P0002 T01280122
PABE 131958Z 24008KT 1SM R19R/P6000FT -RA BR OVC006 12/12 A2935 RMK AO2 P0000 T01220117
PABE 131953Z 24010KT 1/2SM R19R/P6000FT -RA FG BKN004 OVC008 12/12 A2935 RMK AO2 SLP939 P0003 T01220117
PABE 131855Z 23012KT 1/2SM R19R/4500V5000FT -RA FG BKN004 OVC008 12/11 A2933 RMK AO2 P0000 T01170111
PABE 131853Z 23013KT 3/4SM R19R/4500V5000FT -RA BR SCT004 OVC008 12/11 A2933 RMK AO2 SLP932 P0004 T01170111
PABE 131805Z 23012KT 3/4SM R19R/5000VP6000FT -RA BR VV006 12/11 A2931 RMK AO2 P0001 T01170111
PABE 131758Z 23012KT 2SM R19R/5000VP6000FT -RA BR OVC006 12/11 A2931 RMK AO2 P0001 T01170111
PABE 131753Z 23012KT 1/2SM R19R/5500VP6000FT -RA FG VV006 12/11 A2931 RMK AO2 SLP925 P0004 60020 T01170111 10122 20117 53015
PABE 131742Z 24012KT 1/2SM R19R/5500VP6000FT -RA FG VV006 12/11 A2930 RMK AO2 P0004 T01170111
PABE 131700Z 23013KT 2SM RA BR OVC006 12/11 A2929 RMK AO2 P0001 T01170111
PABE 131653Z 23012KT 1/2SM R19R/P6000FT -RA FG OVC006 12/11 A2929 RMK AO2 SLP920 P0005 T01170111
PABE 131600Z 24011KT 1/2SM R19R/6000VP6000FT -RA FG VV007 12/12 A2928 RMK AO2 P0001 T01170117
PABE 131553Z 22011KT 1/4SM R19R/6000VP6000FT -RA FG BKN004 OVC009 12/12 A2927 RMK AO2 SLP913 P0002 T01170117
PABE 131529Z 21009KT 1/4SM R19R/P6000FT -RA FG BKN004 OVC009 12/11 A2927 RMK AO2 P0001 T01170111
PABE 131521Z 21010KT 1/2SM R19R/P6000FT -RA FG FEW004 OVC011 12/11 A2927 RMK AO2 P0001 T01170111
PABE 131455Z 21010KT 1/2SM R19R/P6000FT -RA FG OVC005 12/11 A2926 RMK AO2 P0000 T01170111
PABE 131453Z 21010KT 1SM R19R/P6000FT -RA BR OVC005 12/11 A2926 RMK AO2 SLP909 P0005 60009 T01170111 51002
PABE 131450Z 21011KT 1SM R19R/P6000FT -RA BR OVC007 12/11 A2926 RMK AO2 P0005
PABE 131440Z AUTO 21007KT 2 1/2SM -RA BR SCT004 OVC009 12/12 A2926 RMK AO2 P0004 T01170117 TSNO
PABE 131353Z 18006KT 5SM -RA BR OVC004 12/11 A2926 RMK AO2 RAE03B07 SLP908 P0003 T01170111
PABE 131345Z 18006KT 6SM -RA BR BKN004 OVC008 12/11 A2926 RMK AO2 RAE03B07 P0002 T01170111
PABE 131316Z 19006KT 7SM -RA SCT006 BKN018 OVC046 12/11 A2926 RMK AO2 RAE03B07 P0000 T01170111
PABE 131303Z 19007KT 10SM FEW008 BKN045 OVC085 12/11 A2925 RMK AO2 RAE03 P0000 T01170111
PABE 131253Z 20009KT 10SM -RA FEW047 FEW055 OVC080 12/11 A2926 RMK AO2 RAE1158B14E24B53 SLP907 P0001 T01170111
PABE 131238Z 20007KT 10SM FEW007 SCT013 OVC080 12/11 A2925 RMK AO2 RAE1158B14E24 P0001 T01170111
PABE 131226Z 21011KT 10SM FEW007 BKN016 OVC075 12/11 A2925 RMK AO2 RAE1158B14E24 P0001 T01220111
PABE 131153Z 20008KT 10SM -RA BKN007 OVC011 12/12 A2925 RMK AO2 RAB12 CIG 005V010 SLP905 P0000 60000 70041 T01220117 10122 20117 53009
PABE 131124Z 20009KT 10SM -RA BKN008 BKN024 OVC035 12/11 A2924 RMK AO2 RAB12 P0000 T01170111
PABE 131120Z 20009KT 10SM -RA SCT010 BKN028 OVC035 12/11 A2924 RMK AO2 RAB12 P0000 T01170111
PABE 131053Z 21008KT 10SM SCT023 BKN060 OVC070 12/11 A2924 RMK AO2 RAE0954B14E34 SLP902 P0000 T01170111
PABE 131027Z 22010KT 10SM -RA SCT015 BKN050 OVC100 12/11 A2923 RMK AO2 RAE0954B14 P0000 T01170111
PABE 130953Z 22011KT 10SM -RA FEW011 BKN020 OVC070 12/11 A2922 RMK AO2 RAB12 SLP896 P0000 T01170111
PABE 130950Z 22010KT 10SM -RA FEW011 BKN020 OVC046 12/11 A2922 RMK AO2 RAB12 P0000
PABE 130941Z 22010KT 10SM -RA FEW009 BKN032 OVC050 12/11 A2922 RMK AO2 RAB12 P0000 T01170111
PABE 130906Z 22009KT 10SM SCT022 BKN060 OVC070 12/11 A2920 RMK AO2 T01170111
PABE 130853Z 22010KT 10SM FEW012 BKN027 OVC070 12/11 A2920 RMK AO2 SLP888 60000 T01170111 401440111 53020
PABE 130753Z 22012KT 10SM FEW024 BKN055 OVC070 12/11 A2917 RMK AO2 SLP880 T01170111
PABE 130653Z 22012KT 10SM FEW017 BKN055 OVC070 12/11 A2914 RMK AO2 RAB22E31 SLP868 P0000 T01170111
PABE 130634Z 22011KT 10SM FEW014 SCT030 OVC055 12/11 A2913 RMK AO2 RAB22E31 P0000 T01220111